sensor_id;sensor_type;location;lat;lon;timestamp;P1;durP1;ratioP1;P2;durP2;ratioP2
31732;SDS011;18312;51.486;7.144;2022-08-03T00:01:07;3.55;;;1.13;;
31732;SDS011;18312;51.486;7.144;2022-08-03T00:03:34;1.63;;;1.13;;
31732;SDS011;18312;51.486;7.144;2022-08-03T00:06:00;3.03;;;1.35;;
31732;SDS011;18312;51.486;7.144;2022-08-03T00:08:27;2.65;;;1.48;;
31732;SDS011;18312;51.486;7.144;2022-08-03T00:10:54;3.55;;;1.30;;
31732;SDS011;18312;51.486;7.144;2022-08-03T00:13:21;3.03;;;1.30;;
31732;SDS011;18312;51.486;7.144;2022-08-03T00:15:49;5.07;;;1.40;;
31732;SDS011;18312;51.486;7.144;2022-08-03T00:18:16;4.88;;;1.35;;
31732;SDS011;18312;51.486;7.144;2022-08-03T00:20:42;1.92;;;1.23;;
31732;SDS011;18312;51.486;7.144;2022-08-03T00:23:12;1.85;;;1.30;;
31732;SDS011;18312;51.486;7.144;2022-08-03T00:25:38;2.20;;;1.25;;
31732;SDS011;18312;51.486;7.144;2022-08-03T00:28:08;3.30;;;1.27;;
31732;SDS011;18312;51.486;7.144;2022-08-03T00:30:35;1.95;;;1.23;;
31732;SDS011;18312;51.486;7.144;2022-08-03T00:33:05;3.53;;;1.33;;
31732;SDS011;18312;51.486;7.144;2022-08-03T00:35:34;4.70;;;1.23;;
31732;SDS011;18312;51.486;7.144;2022-08-03T00:38:04;5.65;;;1.42;;
31732;SDS011;18312;51.486;7.144;2022-08-03T00:42:58;1.95;;;0.95;;
31732;SDS011;18312;51.486;7.144;2022-08-03T00:45:28;3.65;;;1.30;;
31732;SDS011;18312;51.486;7.144;2022-08-03T00:47:56;4.97;;;1.90;;
31732;SDS011;18312;51.486;7.144;2022-08-03T00:50:27;3.45;;;1.00;;
31732;SDS011;18312;51.486;7.144;2022-08-03T00:52:56;5.28;;;1.85;;
31732;SDS011;18312;51.486;7.144;2022-08-03T00:55:24;4.68;;;1.48;;
31732;SDS011;18312;51.486;7.144;2022-08-03T00:57:51;3.70;;;1.50;;
31732;SDS011;18312;51.486;7.144;2022-08-03T01:00:20;7.88;;;1.20;;
31732;SDS011;18312;51.486;7.144;2022-08-03T01:05:15;1.55;;;0.90;;
31732;SDS011;18312;51.486;7.144;2022-08-03T01:07:51;1.85;;;1.08;;
31732;SDS011;18312;51.486;7.144;2022-08-03T01:10:28;4.13;;;1.20;;
31732;SDS011;18312;51.486;7.144;2022-08-03T01:13:02;7.30;;;1.35;;
31732;SDS011;18312;51.486;7.144;2022-08-03T01:15:37;1.52;;;0.85;;
31732;SDS011;18312;51.486;7.144;2022-08-03T01:18:11;1.90;;;0.90;;
31732;SDS011;18312;51.486;7.144;2022-08-03T01:20:42;4.40;;;1.13;;
31732;SDS011;18312;51.486;7.144;2022-08-03T01:23:21;1.17;;;1.00;;
31732;SDS011;18312;51.486;7.144;2022-08-03T01:26:07;1.88;;;1.08;;
31732;SDS011;18312;51.486;7.144;2022-08-03T01:28:44;2.70;;;1.00;;
31732;SDS011;18312;51.486;7.144;2022-08-03T01:31:26;2.65;;;1.10;;
31732;SDS011;18312;51.486;7.144;2022-08-03T01:33:58;4.47;;;1.85;;
31732;SDS011;18312;51.486;7.144;2022-08-03T01:36:31;2.50;;;1.25;;
31732;SDS011;18312;51.486;7.144;2022-08-03T01:39:03;3.83;;;1.23;;
31732;SDS011;18312;51.486;7.144;2022-08-03T01:41:34;3.20;;;2.22;;
31732;SDS011;18312;51.486;7.144;2022-08-03T01:44:05;5.10;;;1.20;;
31732;SDS011;18312;51.486;7.144;2022-08-03T01:46:37;2.50;;;1.40;;
31732;SDS011;18312;51.486;7.144;2022-08-03T01:49:05;2.30;;;1.20;;
31732;SDS011;18312;51.486;7.144;2022-08-03T01:51:34;7.00;;;1.45;;
31732;SDS011;18312;51.486;7.144;2022-08-03T01:54:03;6.07;;;1.50;;
31732;SDS011;18312;51.486;7.144;2022-08-03T01:56:32;3.15;;;1.20;;
31732;SDS011;18312;51.486;7.144;2022-08-03T01:59:00;6.60;;;1.48;;
31732;SDS011;18312;51.486;7.144;2022-08-03T02:01:28;2.28;;;1.20;;
31732;SDS011;18312;51.486;7.144;2022-08-03T02:04:00;5.38;;;1.63;;
31732;SDS011;18312;51.486;7.144;2022-08-03T02:06:28;3.70;;;1.25;;
31732;SDS011;18312;51.486;7.144;2022-08-03T02:08:57;3.53;;;1.48;;
31732;SDS011;18312;51.486;7.144;2022-08-03T02:11:25;4.97;;;1.58;;
31732;SDS011;18312;51.486;7.144;2022-08-03T02:13:53;3.67;;;1.58;;
31732;SDS011;18312;51.486;7.144;2022-08-03T02:16:21;3.55;;;1.88;;
31732;SDS011;18312;51.486;7.144;2022-08-03T02:18:49;5.13;;;1.30;;
31732;SDS011;18312;51.486;7.144;2022-08-03T02:21:20;2.50;;;1.40;;
31732;SDS011;18312;51.486;7.144;2022-08-03T02:23:48;3.90;;;1.52;;
31732;SDS011;18312;51.486;7.144;2022-08-03T02:26:16;5.28;;;1.70;;
31732;SDS011;18312;51.486;7.144;2022-08-03T02:28:47;4.15;;;1.77;;
31732;SDS011;18312;51.486;7.144;2022-08-03T02:31:21;6.55;;;1.38;;
31732;SDS011;18312;51.486;7.144;2022-08-03T02:33:56;2.00;;;1.30;;
31732;SDS011;18312;51.486;7.144;2022-08-03T02:36:29;1.90;;;1.60;;
31732;SDS011;18312;51.486;7.144;2022-08-03T02:38:59;7.10;;;1.63;;
31732;SDS011;18312;51.486;7.144;2022-08-03T02:41:30;3.20;;;1.90;;
31732;SDS011;18312;51.486;7.144;2022-08-03T02:44:01;4.68;;;1.98;;
31732;SDS011;18312;51.486;7.144;2022-08-03T02:46:32;4.28;;;1.98;;
31732;SDS011;18312;51.486;7.144;2022-08-03T02:49:05;3.20;;;2.15;;
31732;SDS011;18312;51.486;7.144;2022-08-03T02:51:34;1.60;;;1.50;;
31732;SDS011;18312;51.486;7.144;2022-08-03T02:54:04;3.63;;;1.67;;
31732;SDS011;18312;51.486;7.144;2022-08-03T02:56:33;2.45;;;1.92;;
31732;SDS011;18312;51.486;7.144;2022-08-03T02:59:00;3.25;;;1.65;;
31732;SDS011;18312;51.486;7.144;2022-08-03T03:01:29;4.13;;;1.33;;
31732;SDS011;18312;51.486;7.144;2022-08-03T03:03:56;3.45;;;1.70;;
31732;SDS011;18312;51.486;7.144;2022-08-03T03:06:25;4.65;;;1.67;;
31732;SDS011;18312;51.486;7.144;2022-08-03T03:08:56;2.95;;;1.48;;
31732;SDS011;18312;51.486;7.144;2022-08-03T03:11:24;4.55;;;2.13;;
31732;SDS011;18312;51.486;7.144;2022-08-03T03:13:51;2.28;;;1.65;;
31732;SDS011;18312;51.486;7.144;2022-08-03T03:16:20;2.97;;;2.03;;
31732;SDS011;18312;51.486;7.144;2022-08-03T03:21:18;9.05;;;1.70;;
31732;SDS011;18312;51.486;7.144;2022-08-03T03:23:46;2.25;;;1.67;;
31732;SDS011;18312;51.486;7.144;2022-08-03T03:26:15;4.32;;;2.08;;
31732;SDS011;18312;51.486;7.144;2022-08-03T03:28:42;3.80;;;2.20;;
31732;SDS011;18312;51.486;7.144;2022-08-03T03:31:09;7.38;;;2.00;;
31732;SDS011;18312;51.486;7.144;2022-08-03T03:33:39;3.25;;;1.75;;
31732;SDS011;18312;51.486;7.144;2022-08-03T03:36:06;3.88;;;2.05;;
31732;SDS011;18312;51.486;7.144;2022-08-03T03:38:36;2.00;;;1.73;;
31732;SDS011;18312;51.486;7.144;2022-08-03T03:41:05;3.67;;;2.30;;
31732;SDS011;18312;51.486;7.144;2022-08-03T03:46:12;3.50;;;1.73;;
31732;SDS011;18312;51.486;7.144;2022-08-03T03:51:06;5.60;;;2.35;;
31732;SDS011;18312;51.486;7.144;2022-08-03T03:53:34;3.10;;;1.90;;
31732;SDS011;18312;51.486;7.144;2022-08-03T03:56:00;2.33;;;2.03;;
31732;SDS011;18312;51.486;7.144;2022-08-03T03:58:30;10.53;;;2.37;;
31732;SDS011;18312;51.486;7.144;2022-08-03T04:00:59;3.17;;;2.05;;
31732;SDS011;18312;51.486;7.144;2022-08-03T04:03:26;3.47;;;1.80;;
31732;SDS011;18312;51.486;7.144;2022-08-03T04:05:53;5.75;;;2.42;;
31732;SDS011;18312;51.486;7.144;2022-08-03T04:08:37;3.67;;;2.00;;
31732;SDS011;18312;51.486;7.144;2022-08-03T04:11:25;3.78;;;1.95;;
31732;SDS011;18312;51.486;7.144;2022-08-03T04:13:55;5.03;;;2.17;;
31732;SDS011;18312;51.486;7.144;2022-08-03T04:16:27;2.90;;;1.88;;
31732;SDS011;18312;51.486;7.144;2022-08-03T04:18:58;4.22;;;2.00;;
31732;SDS011;18312;51.486;7.144;2022-08-03T04:21:26;7.45;;;2.15;;
31732;SDS011;18312;51.486;7.144;2022-08-03T04:23:57;2.95;;;2.00;;
31732;SDS011;18312;51.486;7.144;2022-08-03T04:26:30;3.47;;;2.72;;
31732;SDS011;18312;51.486;7.144;2022-08-03T04:29:03;6.97;;;2.50;;
31732;SDS011;18312;51.486;7.144;2022-08-03T04:31:32;4.30;;;2.00;;
31732;SDS011;18312;51.486;7.144;2022-08-03T04:34:01;3.63;;;2.30;;
31732;SDS011;18312;51.486;7.144;2022-08-03T04:36:31;3.28;;;2.00;;
31732;SDS011;18312;51.486;7.144;2022-08-03T04:39:03;4.47;;;1.70;;
31732;SDS011;18312;51.486;7.144;2022-08-03T04:41:33;4.32;;;2.13;;
31732;SDS011;18312;51.486;7.144;2022-08-03T04:44:05;4.28;;;1.60;;
31732;SDS011;18312;51.486;7.144;2022-08-03T04:46:38;3.40;;;2.33;;
31732;SDS011;18312;51.486;7.144;2022-08-03T04:49:05;4.77;;;1.73;;
31732;SDS011;18312;51.486;7.144;2022-08-03T04:51:32;4.60;;;2.20;;
31732;SDS011;18312;51.486;7.144;2022-08-03T04:54:02;2.72;;;1.95;;
31732;SDS011;18312;51.486;7.144;2022-08-03T04:56:32;4.18;;;2.10;;
31732;SDS011;18312;51.486;7.144;2022-08-03T04:58:59;2.75;;;2.00;;
31732;SDS011;18312;51.486;7.144;2022-08-03T05:01:26;5.55;;;2.97;;
31732;SDS011;18312;51.486;7.144;2022-08-03T05:03:54;4.97;;;1.90;;
31732;SDS011;18312;51.486;7.144;2022-08-03T05:06:20;2.63;;;1.80;;
31732;SDS011;18312;51.486;7.144;2022-08-03T05:08:47;3.83;;;2.40;;
31732;SDS011;18312;51.486;7.144;2022-08-03T05:11:14;4.70;;;2.53;;
31732;SDS011;18312;51.486;7.144;2022-08-03T05:13:41;4.72;;;2.35;;
31732;SDS011;18312;51.486;7.144;2022-08-03T05:16:08;4.88;;;1.95;;
31732;SDS011;18312;51.486;7.144;2022-08-03T05:18:35;2.47;;;1.73;;
31732;SDS011;18312;51.486;7.144;2022-08-03T05:23:33;4.60;;;2.67;;
31732;SDS011;18312;51.486;7.144;2022-08-03T05:26:02;7.63;;;2.83;;
31732;SDS011;18312;51.486;7.144;2022-08-03T05:28:32;5.38;;;2.83;;
31732;SDS011;18312;51.486;7.144;2022-08-03T05:30:59;6.38;;;2.80;;
31732;SDS011;18312;51.486;7.144;2022-08-03T05:33:26;9.40;;;2.80;;
31732;SDS011;18312;51.486;7.144;2022-08-03T05:35:55;5.72;;;3.03;;
31732;SDS011;18312;51.486;7.144;2022-08-03T05:38:23;3.28;;;2.90;;
31732;SDS011;18312;51.486;7.144;2022-08-03T05:40:50;6.38;;;2.90;;
31732;SDS011;18312;51.486;7.144;2022-08-03T05:43:20;10.30;;;2.80;;
31732;SDS011;18312;51.486;7.144;2022-08-03T05:48:13;3.22;;;2.22;;
31732;SDS011;18312;51.486;7.144;2022-08-03T05:50:40;4.05;;;2.47;;
31732;SDS011;18312;51.486;7.144;2022-08-03T05:53:07;6.50;;;2.72;;
31732;SDS011;18312;51.486;7.144;2022-08-03T05:55:35;3.45;;;2.55;;
31732;SDS011;18312;51.486;7.144;2022-08-03T05:58:01;3.97;;;2.47;;
31732;SDS011;18312;51.486;7.144;2022-08-03T06:00:28;7.22;;;2.45;;
31732;SDS011;18312;51.486;7.144;2022-08-03T06:02:55;5.78;;;3.00;;
31732;SDS011;18312;51.486;7.144;2022-08-03T06:05:22;3.40;;;2.53;;
31732;SDS011;18312;51.486;7.144;2022-08-03T06:07:51;4.63;;;2.72;;
31732;SDS011;18312;51.486;7.144;2022-08-03T06:10:20;4.95;;;2.53;;
31732;SDS011;18312;51.486;7.144;2022-08-03T06:12:49;6.93;;;3.17;;
31732;SDS011;18312;51.486;7.144;2022-08-03T06:15:16;3.83;;;2.42;;
31732;SDS011;18312;51.486;7.144;2022-08-03T06:17:46;8.15;;;2.55;;
31732;SDS011;18312;51.486;7.144;2022-08-03T06:20:15;6.13;;;2.67;;
31732;SDS011;18312;51.486;7.144;2022-08-03T06:22:50;6.03;;;2.63;;
31732;SDS011;18312;51.486;7.144;2022-08-03T06:25:20;3.78;;;2.20;;
31732;SDS011;18312;51.486;7.144;2022-08-03T06:27:46;4.03;;;2.50;;
31732;SDS011;18312;51.486;7.144;2022-08-03T06:30:17;8.13;;;2.65;;
31732;SDS011;18312;51.486;7.144;2022-08-03T06:32:44;6.07;;;2.78;;
31732;SDS011;18312;51.486;7.144;2022-08-03T06:35:11;4.60;;;2.70;;
31732;SDS011;18312;51.486;7.144;2022-08-03T06:37:41;4.13;;;2.38;;
31732;SDS011;18312;51.486;7.144;2022-08-03T06:40:11;4.80;;;2.83;;
31732;SDS011;18312;51.486;7.144;2022-08-03T06:42:39;5.95;;;2.30;;
31732;SDS011;18312;51.486;7.144;2022-08-03T06:45:08;4.20;;;2.28;;
31732;SDS011;18312;51.486;7.144;2022-08-03T06:47:35;5.83;;;2.30;;
31732;SDS011;18312;51.486;7.144;2022-08-03T06:50:05;3.10;;;2.63;;
31732;SDS011;18312;51.486;7.144;2022-08-03T06:52:34;5.75;;;2.45;;
31732;SDS011;18312;51.486;7.144;2022-08-03T06:55:01;4.50;;;2.55;;
31732;SDS011;18312;51.486;7.144;2022-08-03T06:57:29;6.93;;;2.42;;
31732;SDS011;18312;51.486;7.144;2022-08-03T06:59:55;5.00;;;2.08;;
31732;SDS011;18312;51.486;7.144;2022-08-03T07:02:28;4.43;;;2.15;;
31732;SDS011;18312;51.486;7.144;2022-08-03T07:04:55;6.43;;;2.50;;
31732;SDS011;18312;51.486;7.144;2022-08-03T07:07:22;3.28;;;2.20;;
31732;SDS011;18312;51.486;7.144;2022-08-03T07:09:51;4.22;;;2.47;;
31732;SDS011;18312;51.486;7.144;2022-08-03T07:12:21;3.47;;;2.05;;
31732;SDS011;18312;51.486;7.144;2022-08-03T07:14:48;4.85;;;2.10;;
31732;SDS011;18312;51.486;7.144;2022-08-03T07:17:15;7.57;;;2.20;;
31732;SDS011;18312;51.486;7.144;2022-08-03T07:19:45;3.58;;;1.90;;
31732;SDS011;18312;51.486;7.144;2022-08-03T07:22:12;7.25;;;2.28;;
31732;SDS011;18312;51.486;7.144;2022-08-03T07:24:41;5.13;;;2.10;;
31732;SDS011;18312;51.486;7.144;2022-08-03T07:27:08;3.65;;;1.77;;
31732;SDS011;18312;51.486;7.144;2022-08-03T07:29:35;7.03;;;2.10;;
31732;SDS011;18312;51.486;7.144;2022-08-03T07:32:02;4.07;;;1.73;;
31732;SDS011;18312;51.486;7.144;2022-08-03T07:34:33;6.80;;;1.92;;
31732;SDS011;18312;51.486;7.144;2022-08-03T07:39:27;3.92;;;1.92;;
31732;SDS011;18312;51.486;7.144;2022-08-03T07:41:56;3.83;;;1.90;;
31732;SDS011;18312;51.486;7.144;2022-08-03T07:44:23;4.57;;;1.70;;
31732;SDS011;18312;51.486;7.144;2022-08-03T07:46:53;6.65;;;1.83;;
31732;SDS011;18312;51.486;7.144;2022-08-03T07:49:19;6.97;;;1.63;;
31732;SDS011;18312;51.486;7.144;2022-08-03T07:51:46;3.88;;;1.95;;
31732;SDS011;18312;51.486;7.144;2022-08-03T07:54:40;3.20;;;1.88;;
31732;SDS011;18312;51.486;7.144;2022-08-03T07:57:12;2.78;;;1.75;;
31732;SDS011;18312;51.486;7.144;2022-08-03T07:59:39;6.22;;;1.75;;
31732;SDS011;18312;51.486;7.144;2022-08-03T08:02:06;5.70;;;1.90;;
31732;SDS011;18312;51.486;7.144;2022-08-03T08:04:33;3.42;;;1.50;;
31732;SDS011;18312;51.486;7.144;2022-08-03T08:07:00;5.47;;;1.75;;
31732;SDS011;18312;51.486;7.144;2022-08-03T08:09:26;3.95;;;1.75;;
31732;SDS011;18312;51.486;7.144;2022-08-03T08:11:56;6.18;;;1.90;;
31732;SDS011;18312;51.486;7.144;2022-08-03T08:14:26;1.63;;;1.17;;
31732;SDS011;18312;51.486;7.144;2022-08-03T08:16:53;7.60;;;2.03;;
31732;SDS011;18312;51.486;7.144;2022-08-03T08:19:19;4.88;;;1.17;;
31732;SDS011;18312;51.486;7.144;2022-08-03T08:21:46;4.63;;;1.83;;
31732;SDS011;18312;51.486;7.144;2022-08-03T08:24:13;4.70;;;1.75;;
31732;SDS011;18312;51.486;7.144;2022-08-03T08:26:40;2.35;;;1.30;;
31732;SDS011;18312;51.486;7.144;2022-08-03T08:29:11;5.30;;;2.20;;
31732;SDS011;18312;51.486;7.144;2022-08-03T08:31:38;2.63;;;1.95;;
31732;SDS011;18312;51.486;7.144;2022-08-03T08:34:05;7.63;;;1.90;;
31732;SDS011;18312;51.486;7.144;2022-08-03T08:36:31;5.53;;;1.63;;
31732;SDS011;18312;51.486;7.144;2022-08-03T08:38:58;4.43;;;1.65;;
31732;SDS011;18312;51.486;7.144;2022-08-03T08:41:28;4.90;;;1.63;;
31732;SDS011;18312;51.486;7.144;2022-08-03T08:43:57;4.13;;;1.65;;
31732;SDS011;18312;51.486;7.144;2022-08-03T08:46:26;6.15;;;2.35;;
31732;SDS011;18312;51.486;7.144;2022-08-03T08:48:57;6.82;;;1.90;;
31732;SDS011;18312;51.486;7.144;2022-08-03T08:51:26;2.88;;;1.40;;
31732;SDS011;18312;51.486;7.144;2022-08-03T08:53:55;1.83;;;1.48;;
31732;SDS011;18312;51.486;7.144;2022-08-03T08:56:26;2.60;;;1.52;;
31732;SDS011;18312;51.486;7.144;2022-08-03T08:58:56;1.77;;;1.30;;
31732;SDS011;18312;51.486;7.144;2022-08-03T09:01:25;3.15;;;1.33;;
31732;SDS011;18312;51.486;7.144;2022-08-03T09:03:53;5.00;;;1.27;;
31732;SDS011;18312;51.486;7.144;2022-08-03T09:06:20;3.33;;;1.33;;
31732;SDS011;18312;51.486;7.144;2022-08-03T09:08:46;3.50;;;1.48;;
31732;SDS011;18312;51.486;7.144;2022-08-03T09:11:22;3.83;;;0.95;;
31732;SDS011;18312;51.486;7.144;2022-08-03T09:13:48;2.50;;;1.42;;
31732;SDS011;18312;51.486;7.144;2022-08-03T09:16:16;4.00;;;1.25;;
31732;SDS011;18312;51.486;7.144;2022-08-03T09:18:48;3.22;;;1.02;;
31732;SDS011;18312;51.486;7.144;2022-08-03T09:21:20;3.40;;;1.83;;
31732;SDS011;18312;51.486;7.144;2022-08-03T09:23:48;8.43;;;1.70;;
31732;SDS011;18312;51.486;7.144;2022-08-03T09:26:20;3.83;;;1.30;;
31732;SDS011;18312;51.486;7.144;2022-08-03T09:31:36;3.42;;;0.80;;
31732;SDS011;18312;51.486;7.144;2022-08-03T09:34:06;3.28;;;1.20;;
31732;SDS011;18312;51.486;7.144;2022-08-03T09:36:38;6.90;;;1.15;;
31732;SDS011;18312;51.486;7.144;2022-08-03T09:39:07;1.30;;;0.88;;
31732;SDS011;18312;51.486;7.144;2022-08-03T09:41:38;7.45;;;1.20;;
31732;SDS011;18312;51.486;7.144;2022-08-03T09:44:08;4.75;;;1.23;;
31732;SDS011;18312;51.486;7.144;2022-08-03T09:46:46;6.45;;;2.05;;
31732;SDS011;18312;51.486;7.144;2022-08-03T09:49:15;4.05;;;1.02;;
31732;SDS011;18312;51.486;7.144;2022-08-03T09:51:47;2.10;;;1.00;;
31732;SDS011;18312;51.486;7.144;2022-08-03T09:54:24;4.63;;;1.15;;
31732;SDS011;18312;51.486;7.144;2022-08-03T09:56:51;6.60;;;1.40;;
31732;SDS011;18312;51.486;7.144;2022-08-03T09:59:22;7.97;;;1.08;;
31732;SDS011;18312;51.486;7.144;2022-08-03T10:01:49;3.13;;;0.98;;
31732;SDS011;18312;51.486;7.144;2022-08-03T10:04:18;8.93;;;1.10;;
31732;SDS011;18312;51.486;7.144;2022-08-03T10:06:49;2.33;;;1.05;;
31732;SDS011;18312;51.486;7.144;2022-08-03T10:09:27;2.80;;;1.10;;
31732;SDS011;18312;51.486;7.144;2022-08-03T10:11:54;1.75;;;1.02;;
31732;SDS011;18312;51.486;7.144;2022-08-03T10:14:21;6.57;;;1.23;;
31732;SDS011;18312;51.486;7.144;2022-08-03T10:16:50;1.92;;;1.00;;
31732;SDS011;18312;51.486;7.144;2022-08-03T10:19:18;2.92;;;1.25;;
31732;SDS011;18312;51.486;7.144;2022-08-03T10:21:45;3.55;;;1.55;;
31732;SDS011;18312;51.486;7.144;2022-08-03T10:24:16;2.80;;;1.55;;
31732;SDS011;18312;51.486;7.144;2022-08-03T10:26:49;4.53;;;2.00;;
31732;SDS011;18312;51.486;7.144;2022-08-03T10:29:17;12.13;;;1.40;;
31732;SDS011;18312;51.486;7.144;2022-08-03T10:31:46;2.60;;;1.20;;
31732;SDS011;18312;51.486;7.144;2022-08-03T10:34:28;5.38;;;1.15;;
31732;SDS011;18312;51.486;7.144;2022-08-03T10:37:00;3.50;;;1.13;;
31732;SDS011;18312;51.486;7.144;2022-08-03T10:39:32;2.63;;;0.90;;
31732;SDS011;18312;51.486;7.144;2022-08-03T10:42:00;4.55;;;0.90;;
31732;SDS011;18312;51.486;7.144;2022-08-03T10:44:30;3.27;;;0.87;;
31732;SDS011;18312;51.486;7.144;2022-08-03T10:49:38;5.30;;;1.33;;
31732;SDS011;18312;51.486;7.144;2022-08-03T10:52:05;6.70;;;1.38;;
31732;SDS011;18312;51.486;7.144;2022-08-03T10:54:39;5.30;;;0.80;;
31732;SDS011;18312;51.486;7.144;2022-08-03T11:00:14;8.20;;;0.82;;
31732;SDS011;18312;51.486;7.144;2022-08-03T11:05:42;3.53;;;0.63;;
31732;SDS011;18312;51.486;7.144;2022-08-03T11:11:01;3.72;;;0.70;;
31732;SDS011;18312;51.486;7.144;2022-08-03T11:13:55;2.13;;;0.90;;
31732;SDS011;18312;51.486;7.144;2022-08-03T11:16:23;5.82;;;1.02;;
31732;SDS011;18312;51.486;7.144;2022-08-03T11:18:55;4.45;;;0.80;;
31732;SDS011;18312;51.486;7.144;2022-08-03T11:27:27;3.97;;;0.80;;
31732;SDS011;18312;51.486;7.144;2022-08-03T11:29:56;5.38;;;0.82;;
31732;SDS011;18312;51.486;7.144;2022-08-03T11:35:17;3.50;;;0.90;;
31732;SDS011;18312;51.486;7.144;2022-08-03T11:40:39;2.28;;;0.60;;
31732;SDS011;18312;51.486;7.144;2022-08-03T11:43:08;4.75;;;1.08;;
31732;SDS011;18312;51.486;7.144;2022-08-03T11:45:36;5.17;;;1.30;;
31732;SDS011;18312;51.486;7.144;2022-08-03T11:48:12;1.48;;;0.55;;
31732;SDS011;18312;51.486;7.144;2022-08-03T11:50:40;5.00;;;0.88;;
31732;SDS011;18312;51.486;7.144;2022-08-03T11:53:13;4.00;;;1.58;;
31732;SDS011;18312;51.486;7.144;2022-08-03T11:55:42;2.83;;;1.17;;
31732;SDS011;18312;51.486;7.144;2022-08-03T11:58:17;4.25;;;0.70;;
31732;SDS011;18312;51.486;7.144;2022-08-03T12:00:45;3.63;;;0.60;;
31732;SDS011;18312;51.486;7.144;2022-08-03T12:03:12;4.18;;;0.80;;
31732;SDS011;18312;51.486;7.144;2022-08-03T12:05:45;2.42;;;0.80;;
31732;SDS011;18312;51.486;7.144;2022-08-03T12:08:14;2.83;;;0.93;;
31732;SDS011;18312;51.486;7.144;2022-08-03T12:10:45;4.22;;;0.85;;
31732;SDS011;18312;51.486;7.144;2022-08-03T12:13:14;2.03;;;0.70;;
31732;SDS011;18312;51.486;7.144;2022-08-03T12:15:41;5.38;;;0.90;;
31732;SDS011;18312;51.486;7.144;2022-08-03T12:18:12;2.22;;;0.70;;
31732;SDS011;18312;51.486;7.144;2022-08-03T12:20:40;4.95;;;0.75;;
31732;SDS011;18312;51.486;7.144;2022-08-03T12:23:07;6.18;;;1.33;;
31732;SDS011;18312;51.486;7.144;2022-08-03T12:25:36;2.70;;;0.50;;
31732;SDS011;18312;51.486;7.144;2022-08-03T12:28:08;2.90;;;0.90;;
31732;SDS011;18312;51.486;7.144;2022-08-03T12:30:38;7.15;;;0.63;;
31732;SDS011;18312;51.486;7.144;2022-08-03T12:33:12;2.28;;;0.60;;
31732;SDS011;18312;51.486;7.144;2022-08-03T12:35:44;7.30;;;0.85;;
31732;SDS011;18312;51.486;7.144;2022-08-03T12:38:11;1.63;;;0.55;;
31732;SDS011;18312;51.486;7.144;2022-08-03T12:40:39;2.47;;;0.52;;
31732;SDS011;18312;51.486;7.144;2022-08-03T12:43:10;5.07;;;0.70;;
31732;SDS011;18312;51.486;7.144;2022-08-03T12:45:40;1.95;;;0.77;;
31732;SDS011;18312;51.486;7.144;2022-08-03T12:48:07;3.25;;;0.82;;
31732;SDS011;18312;51.486;7.144;2022-08-03T12:50:36;2.15;;;0.50;;
31732;SDS011;18312;51.486;7.144;2022-08-03T12:53:04;5.10;;;0.55;;
31732;SDS011;18312;51.486;7.144;2022-08-03T12:55:35;1.02;;;0.40;;
31732;SDS011;18312;51.486;7.144;2022-08-03T12:58:09;3.60;;;0.60;;
31732;SDS011;18312;51.486;7.144;2022-08-03T13:00:57;0.88;;;0.60;;
31732;SDS011;18312;51.486;7.144;2022-08-03T13:03:24;3.63;;;0.70;;
31732;SDS011;18312;51.486;7.144;2022-08-03T13:05:50;0.50;;;0.40;;
31732;SDS011;18312;51.486;7.144;2022-08-03T13:08:21;5.10;;;0.70;;
31732;SDS011;18312;51.486;7.144;2022-08-03T13:10:49;2.50;;;0.63;;
31732;SDS011;18312;51.486;7.144;2022-08-03T13:13:18;2.00;;;0.57;;
31732;SDS011;18312;51.486;7.144;2022-08-03T13:16:03;1.38;;;0.60;;
31732;SDS011;18312;51.486;7.144;2022-08-03T13:18:36;1.88;;;0.52;;
31732;SDS011;18312;51.486;7.144;2022-08-03T13:21:08;5.32;;;0.80;;
31732;SDS011;18312;51.486;7.144;2022-08-03T13:23:35;3.17;;;0.60;;
31732;SDS011;18312;51.486;7.144;2022-08-03T13:26:02;1.98;;;1.10;;
31732;SDS011;18312;51.486;7.144;2022-08-03T13:28:33;1.50;;;0.40;;
31732;SDS011;18312;51.486;7.144;2022-08-03T13:30:59;1.92;;;0.95;;
31732;SDS011;18312;51.486;7.144;2022-08-03T13:33:26;4.07;;;0.60;;
31732;SDS011;18312;51.486;7.144;2022-08-03T13:35:53;1.10;;;0.60;;
31732;SDS011;18312;51.486;7.144;2022-08-03T13:38:20;3.08;;;0.88;;
31732;SDS011;18312;51.486;7.144;2022-08-03T13:40:50;1.42;;;0.60;;
31732;SDS011;18312;51.486;7.144;2022-08-03T13:43:17;2.10;;;0.65;;
31732;SDS011;18312;51.486;7.144;2022-08-03T13:45:45;0.50;;;0.50;;
31732;SDS011;18312;51.486;7.144;2022-08-03T13:48:12;1.42;;;0.60;;
31732;SDS011;18312;51.486;7.144;2022-08-03T13:50:39;3.78;;;0.60;;
31732;SDS011;18312;51.486;7.144;2022-08-03T13:53:05;3.28;;;0.57;;
31732;SDS011;18312;51.486;7.144;2022-08-03T13:55:32;1.10;;;0.57;;
31732;SDS011;18312;51.486;7.144;2022-08-03T13:57:59;2.20;;;0.50;;
31732;SDS011;18312;51.486;7.144;2022-08-03T14:02:56;1.08;;;0.40;;
31732;SDS011;18312;51.486;7.144;2022-08-03T14:05:27;3.88;;;0.68;;
31732;SDS011;18312;51.486;7.144;2022-08-03T14:08:00;2.38;;;0.60;;
31732;SDS011;18312;51.486;7.144;2022-08-03T14:10:29;2.65;;;1.40;;
31732;SDS011;18312;51.486;7.144;2022-08-03T14:12:55;8.10;;;0.65;;
31732;SDS011;18312;51.486;7.144;2022-08-03T14:15:25;1.40;;;0.50;;
31732;SDS011;18312;51.486;7.144;2022-08-03T14:17:54;0.90;;;0.50;;
31732;SDS011;18312;51.486;7.144;2022-08-03T14:20:22;3.65;;;0.70;;
31732;SDS011;18312;51.486;7.144;2022-08-03T14:22:49;2.83;;;0.70;;
31732;SDS011;18312;51.486;7.144;2022-08-03T14:25:16;2.25;;;0.65;;
31732;SDS011;18312;51.486;7.144;2022-08-03T14:27:43;1.98;;;0.68;;
31732;SDS011;18312;51.486;7.144;2022-08-03T14:30:12;3.83;;;0.70;;
31732;SDS011;18312;51.486;7.144;2022-08-03T14:32:42;4.22;;;0.85;;
31732;SDS011;18312;51.486;7.144;2022-08-03T14:35:09;1.20;;;0.50;;
31732;SDS011;18312;51.486;7.144;2022-08-03T14:37:37;3.58;;;0.80;;
31732;SDS011;18312;51.486;7.144;2022-08-03T14:40:04;4.70;;;0.70;;
31732;SDS011;18312;51.486;7.144;2022-08-03T14:42:32;1.30;;;0.70;;
31732;SDS011;18312;51.486;7.144;2022-08-03T14:44:58;6.88;;;0.98;;
31732;SDS011;18312;51.486;7.144;2022-08-03T14:47:25;2.13;;;0.70;;
31732;SDS011;18312;51.486;7.144;2022-08-03T14:50:01;5.25;;;0.70;;
31732;SDS011;18312;51.486;7.144;2022-08-03T14:52:29;1.80;;;0.77;;
31732;SDS011;18312;51.486;7.144;2022-08-03T14:57:29;1.00;;;0.50;;
31732;SDS011;18312;51.486;7.144;2022-08-03T14:59:56;1.77;;;0.70;;
31732;SDS011;18312;51.486;7.144;2022-08-03T15:02:22;2.55;;;0.70;;
31732;SDS011;18312;51.486;7.144;2022-08-03T15:04:49;4.10;;;0.73;;
31732;SDS011;18312;51.486;7.144;2022-08-03T15:07:16;3.00;;;0.60;;
31732;SDS011;18312;51.486;7.144;2022-08-03T15:09:43;2.58;;;0.68;;
31732;SDS011;18312;51.486;7.144;2022-08-03T15:12:11;1.73;;;0.80;;
31732;SDS011;18312;51.486;7.144;2022-08-03T15:14:38;1.37;;;0.70;;
31732;SDS011;18312;51.486;7.144;2022-08-03T15:17:04;4.07;;;0.73;;
31732;SDS011;18312;51.486;7.144;2022-08-03T15:19:31;2.80;;;0.80;;
31732;SDS011;18312;51.486;7.144;2022-08-03T15:21:58;2.17;;;0.50;;
31732;SDS011;18312;51.486;7.144;2022-08-03T15:24:25;1.52;;;0.50;;
31732;SDS011;18312;51.486;7.144;2022-08-03T15:26:51;2.28;;;0.65;;
31732;SDS011;18312;51.486;7.144;2022-08-03T15:29:19;2.30;;;0.60;;
31732;SDS011;18312;51.486;7.144;2022-08-03T15:31:46;1.33;;;0.82;;
31732;SDS011;18312;51.486;7.144;2022-08-03T15:34:15;4.00;;;1.02;;
31732;SDS011;18312;51.486;7.144;2022-08-03T15:36:45;1.65;;;0.73;;
31732;SDS011;18312;51.486;7.144;2022-08-03T15:39:12;1.50;;;0.60;;
31732;SDS011;18312;51.486;7.144;2022-08-03T15:41:41;3.20;;;0.50;;
31732;SDS011;18312;51.486;7.144;2022-08-03T15:44:09;2.25;;;0.75;;
31732;SDS011;18312;51.486;7.144;2022-08-03T15:46:44;1.70;;;0.50;;
31732;SDS011;18312;51.486;7.144;2022-08-03T15:49:11;3.25;;;0.80;;
31732;SDS011;18312;51.486;7.144;2022-08-03T15:51:38;2.08;;;0.60;;